createdAt,value
2023-01-21T00:01:26.305Z,15.93
2023-01-21T00:06:28.088Z,15.30
2023-01-21T00:11:30.366Z,15.50
2023-01-21T00:16:32.132Z,14.15
2023-01-21T00:21:33.878Z,15.13
2023-01-21T00:26:35.618Z,14.98
2023-01-21T00:31:37.619Z,14.23
2023-01-21T00:36:39.461Z,15.18
2023-01-21T00:41:42.717Z,16.33
2023-01-21T00:46:44.464Z,15.82
2023-01-21T00:51:46.520Z,14.85
2023-01-21T00:56:49.704Z,17.10
2023-01-21T01:01:51.742Z,17.60
2023-01-21T01:06:55.047Z,17.75
2023-01-21T01:11:57.180Z,18.15
2023-01-21T01:16:58.863Z,17.30
2023-01-21T01:22:00.635Z,17.42
2023-01-21T01:27:02.356Z,17.02
2023-01-21T01:32:06.764Z,15.48
2023-01-21T01:37:11.104Z,14.27
2023-01-21T01:42:17.429Z,16.05
2023-01-21T01:47:20.116Z,15.80
2023-01-21T01:52:22.814Z,15.75
2023-01-21T01:57:31.834Z,16.65
2023-01-21T02:02:34.884Z,15.05
2023-01-21T02:07:42.590Z,13.23
2023-01-21T02:12:46.757Z,14.27
2023-01-21T02:18:07.077Z,13.52
2023-01-21T02:23:33.344Z,13.40
2023-01-21T02:29:05.809Z,12.95
2023-01-21T02:34:32.876Z,14.30
2023-01-21T02:40:19.685Z,13.93
2023-01-21T02:45:29.768Z,14.95
2023-01-21T02:50:44.874Z,14.43
2023-01-21T02:55:46.746Z,15.43
2023-01-21T03:01:30.843Z,13.15
2023-01-21T03:06:59.642Z,12.77
2023-01-21T03:12:29.817Z,15.55
2023-01-21T03:17:43.268Z,14.60
2023-01-21T03:22:46.237Z,12.98
2023-01-21T03:27:49.776Z,13.90
2023-01-21T03:32:54.503Z,14.05
2023-01-21T03:38:20.485Z,12.70
2023-01-21T03:43:22.463Z,11.68
2023-01-21T03:48:40.297Z,11.68
2023-01-21T03:53:43.175Z,12.50
2023-01-21T03:58:46.505Z,12.85
2023-01-21T04:03:49.895Z,12.95
2023-01-21T04:08:51.633Z,11.65
2023-01-21T04:13:53.328Z,12.75
2023-01-21T04:18:55.313Z,13.45
2023-01-21T04:23:56.997Z,15.35
2023-01-21T04:28:58.727Z,13.18
2023-01-21T04:34:00.744Z,13.52
2023-01-21T04:39:03.836Z,12.70
2023-01-21T04:44:05.987Z,13.52
2023-01-21T04:49:07.839Z,12.27
2023-01-21T04:54:11.602Z,13.48
2023-01-21T04:59:13.555Z,12.77
2023-01-21T05:04:15.669Z,13.65
2023-01-21T05:09:17.622Z,14.30
2023-01-21T05:14:19.346Z,11.43
2023-01-21T05:19:21.172Z,9.38
2023-01-21T05:24:22.929Z,8.32
2023-01-21T05:29:25.788Z,7.72
2023-01-21T05:34:27.615Z,8.43
2023-01-21T05:39:31.249Z,8.48
2023-01-21T05:44:33.092Z,8.40
2023-01-21T05:49:35.600Z,8.98
2023-01-21T05:54:37.803Z,8.13
2023-01-21T05:59:40.913Z,8.55
2023-01-21T06:04:42.695Z,7.75
2023-01-21T06:09:44.430Z,8.38
2023-01-21T06:14:46.164Z,8.75
2023-01-21T06:19:47.910Z,8.70
2023-01-21T06:24:49.660Z,8.23
2023-01-21T06:29:51.358Z,8.85
2023-01-21T06:34:53.145Z,8.65
2023-01-21T06:39:54.860Z,8.73
2023-01-21T06:44:57.872Z,9.43
2023-01-21T06:49:59.615Z,8.98
2023-01-21T06:55:01.356Z,9.65
2023-01-21T07:00:03.357Z,9.30
2023-01-21T07:05:06.951Z,9.88
2023-01-21T07:10:09.561Z,8.40
2023-01-21T07:15:12.431Z,11.77
2023-01-21T07:20:15.593Z,10.55
2023-01-21T07:25:17.550Z,9.23
2023-01-21T07:30:20.863Z,9.85
2023-01-21T07:35:23.909Z,9.70
2023-01-21T07:40:26.659Z,8.48
2023-01-21T07:45:28.486Z,8.55
2023-01-21T07:50:30.147Z,8.48
2023-01-21T07:55:32.391Z,8.65
2023-01-21T08:00:34.147Z,8.48
2023-01-21T08:05:35.870Z,9.38
2023-01-21T08:10:38.739Z,9.45
2023-01-21T08:15:40.500Z,8.57
2023-01-21T08:20:44.361Z,8.57
2023-01-21T08:25:46.821Z,8.38
2023-01-21T08:30:48.753Z,10.57
2023-01-21T08:35:52.100Z,8.02
2023-01-21T08:40:53.825Z,8.05
2023-01-21T08:45:57.054Z,8.13
2023-01-21T08:51:00.455Z,8.70
2023-01-21T08:56:05.906Z,8.45
2023-01-21T09:01:12.481Z,8.43
2023-01-21T09:06:14.325Z,8.45
2023-01-21T09:11:17.228Z,7.70
2023-01-21T09:16:21.122Z,8.38
2023-01-21T09:21:23.258Z,7.57
2023-01-21T09:26:25.831Z,7.97
2023-01-21T09:31:30.490Z,7.78
2023-01-21T09:36:34.262Z,8.52
2023-01-21T09:41:44.134Z,8.13
2023-01-21T09:47:25.678Z,7.35
2023-01-21T09:52:37.990Z,7.00
2023-01-21T09:58:04.703Z,7.63
2023-01-21T10:03:28.475Z,8.88
2023-01-21T10:08:54.666Z,7.63
2023-01-21T10:14:32.520Z,6.80
2023-01-21T10:19:46.389Z,7.15
2023-01-21T10:24:53.724Z,6.93
2023-01-21T10:30:08.202Z,6.93
2023-01-21T10:35:20.598Z,7.55
2023-01-21T10:40:46.141Z,6.57
2023-01-21T10:46:04.993Z,7.15
2023-01-21T10:51:40.196Z,6.95
2023-01-21T10:57:17.224Z,7.72
2023-01-21T11:02:31.765Z,6.30
2023-01-21T11:07:38.026Z,7.95
2023-01-21T11:12:39.798Z,8.65
2023-01-21T11:17:44.886Z,7.63
2023-01-21T11:22:46.696Z,7.95
2023-01-21T11:27:48.400Z,8.20
2023-01-21T11:32:50.176Z,8.73
2023-01-21T11:37:52.155Z,8.18
2023-01-21T11:42:57.148Z,8.52
2023-01-21T11:48:00.041Z,9.02
2023-01-21T11:53:13.755Z,9.13
2023-01-21T11:58:38.654Z,8.68
2023-01-21T12:03:51.496Z,9.73
2023-01-21T12:08:58.330Z,9.48
2023-01-21T12:14:18.513Z,8.63
2023-01-21T12:19:40.120Z,8.43
2023-01-21T12:24:47.655Z,8.35
2023-01-21T12:30:17.075Z,8.30
2023-01-21T12:35:43.776Z,7.90
2023-01-21T12:41:14.203Z,8.02
2023-01-21T12:46:25.026Z,8.45
2023-01-21T12:51:37.075Z,7.93
2023-01-21T12:56:52.214Z,7.15
2023-01-21T13:02:12.773Z,8.32
2023-01-21T13:08:05.790Z,8.32
2023-01-21T13:13:29.957Z,8.38
2023-01-21T13:18:53.006Z,9.20
2023-01-21T13:24:00.114Z,7.63
2023-01-21T13:29:10.729Z,9.30
2023-01-21T13:34:49.071Z,9.13
2023-01-21T13:40:18.003Z,8.25
2023-01-21T13:45:25.687Z,9.45
2023-01-21T13:50:56.634Z,9.15
2023-01-21T13:56:26.380Z,8.80
2023-01-21T14:01:45.797Z,9.10
2023-01-21T14:07:10.886Z,8.20
2023-01-21T14:12:39.650Z,8.70
2023-01-21T14:17:57.966Z,8.85
2023-01-21T14:23:22.443Z,8.75
2023-01-21T14:28:54.575Z,8.32
2023-01-21T14:34:17.796Z,9.00
2023-01-21T14:39:19.452Z,9.30
2023-01-21T14:44:42.169Z,9.68
2023-01-21T14:49:50.132Z,9.82
2023-01-21T14:54:54.264Z,8.50
2023-01-21T15:00:15.606Z,8.55
2023-01-21T15:05:30.732Z,8.43
2023-01-21T15:10:40.866Z,9.05
2023-01-21T15:16:17.863Z,9.60
2023-01-21T15:21:43.562Z,9.77
2023-01-21T15:27:17.051Z,11.90
2023-01-21T15:32:47.947Z,11.68
2023-01-21T15:37:52.801Z,9.38
2023-01-21T15:43:04.426Z,9.68
2023-01-21T15:48:47.494Z,9.57
2023-01-21T15:54:01.434Z,9.18
2023-01-21T15:59:33.719Z,8.18
2023-01-21T16:05:00.203Z,8.27
2023-01-21T16:10:08.227Z,8.43
2023-01-21T16:15:32.448Z,9.18
2023-01-21T16:20:34.990Z,8.75
2023-01-21T16:25:46.201Z,9.70
2023-01-21T16:30:57.514Z,8.25
2023-01-21T16:36:05.740Z,9.38
2023-01-21T16:41:09.938Z,9.07
2023-01-21T16:46:14.361Z,9.50
2023-01-21T16:51:25.101Z,9.20
2023-01-21T16:56:30.269Z,10.02
2023-01-21T17:01:32.354Z,9.70
2023-01-21T17:06:34.209Z,9.00
2023-01-21T17:11:39.346Z,9.10
2023-01-21T17:16:42.037Z,8.77
2023-01-21T17:21:47.440Z,14.52
2023-01-21T17:26:53.275Z,9.00
2023-01-21T17:32:31.505Z,9.13
2023-01-21T17:37:50.948Z,8.13
2023-01-21T17:42:53.193Z,9.48
2023-01-21T17:48:14.412Z,9.18
2023-01-21T17:53:25.225Z,5.93
2023-01-21T17:58:45.969Z,7.85
2023-01-21T18:03:47.865Z,7.43
2023-01-21T18:08:50.839Z,7.78
2023-01-21T18:13:52.796Z,7.63
2023-01-21T18:18:55.688Z,6.03
2023-01-21T18:23:57.581Z,7.97
2023-01-21T18:28:59.718Z,5.65
2023-01-21T18:34:01.696Z,5.43
2023-01-21T18:39:14.475Z,6.35
2023-01-21T18:44:16.409Z,6.07
2023-01-21T18:49:19.972Z,6.28
2023-01-21T18:54:21.701Z,4.90
2023-01-21T18:59:23.425Z,4.93
2023-01-21T19:04:25.154Z,5.53
2023-01-21T19:09:27.712Z,4.72
2023-01-21T19:14:30.673Z,4.35
2023-01-21T19:19:34.446Z,4.47
2023-01-21T19:24:36.402Z,4.32
2023-01-21T19:29:38.070Z,4.18
2023-01-21T19:34:39.944Z,3.65
2023-01-21T19:39:41.815Z,3.92
2023-01-21T19:44:43.624Z,3.80
2023-01-21T19:49:48.297Z,3.72
2023-01-21T19:54:50.071Z,3.60
2023-01-21T19:59:53.393Z,3.30
2023-01-21T20:04:55.635Z,3.60
2023-01-21T20:09:58.128Z,4.72
2023-01-21T20:15:01.385Z,3.50
2023-01-21T20:20:17.362Z,3.25
2023-01-21T20:25:38.799Z,3.90
2023-01-21T20:30:40.521Z,4.68
2023-01-21T20:35:50.030Z,4.82
2023-01-21T20:40:51.777Z,4.05
2023-01-21T20:45:56.479Z,3.85
2023-01-21T20:50:59.964Z,3.25
2023-01-21T20:56:18.719Z,3.70
2023-01-21T21:01:24.776Z,3.08
2023-01-21T21:06:28.874Z,2.70
2023-01-21T21:11:30.658Z,2.63
2023-01-21T21:16:34.267Z,2.42
2023-01-21T21:21:36.054Z,2.63
2023-01-21T21:26:40.765Z,2.70
2023-01-21T21:31:42.696Z,2.80
2023-01-21T21:36:44.796Z,2.75
2023-01-21T21:42:04.834Z,2.53
2023-01-21T21:47:27.077Z,3.22
2023-01-21T21:52:30.231Z,3.17
2023-01-21T21:57:32.917Z,3.20
2023-01-21T22:02:34.732Z,3.30
2023-01-21T22:07:38.193Z,3.08
2023-01-21T22:12:39.918Z,3.25
2023-01-21T22:17:41.601Z,2.72
2023-01-21T22:22:43.813Z,2.97
2023-01-21T22:27:45.679Z,3.03
2023-01-21T22:32:47.400Z,3.40
2023-01-21T22:37:49.176Z,2.97
2023-01-21T22:42:50.925Z,3.42
2023-01-21T22:47:52.883Z,3.25
2023-01-21T22:52:55.198Z,3.30
2023-01-21T22:57:57.089Z,3.40
2023-01-21T23:02:59.075Z,3.88
2023-01-21T23:08:01.363Z,4.00
2023-01-21T23:13:04.401Z,4.25
2023-01-21T23:18:06.139Z,3.80
2023-01-21T23:23:09.304Z,4.30
2023-01-21T23:28:15.008Z,4.30
2023-01-21T23:33:16.875Z,4.00
2023-01-21T23:38:21.361Z,4.35
2023-01-21T23:43:27.343Z,4.28
2023-01-21T23:48:29.501Z,4.50
2023-01-21T23:53:32.872Z,4.28
2023-01-21T23:58:34.634Z,4.53
